Hlavní strana
METAR-TAF:

METAR-TAF

Letiště :

Corinth, Mississippi, Spojené státy americké

zeměpisná šířka: 34-54-54N, zeměpisná délka: 088-36-13W, výška: 130 m

Aktuální stav počasí

Zpráva byla vytvořena před 20 minutami, v 17:15 UTC
Severní vítr 8 kt
Teplota 9°C
Vlhkost vzduchu 40%
Tlak 1027 hPa
Viditelnost: 16.1 km
Jasno

METAR: KCRX 151715Z AUTO 01008KT 10SM CLR 09/M04 A3033 RMK AO2

Čas: 11:35 (17:35 UTC)


TAF: chybějící

Stav a předpovědi počasí z více než 4 000 letišť (zprávy METAR a TAF).

Červené a žluté tečky na mapě představují dostupné meteorologické stanice.

Když kurzor umístíte na tečku, zobrazí se název stanice.

Pak kliknutím zobrazíte stav a předpověď počasí.

Chcete-li změnit mapu, kliknutím na zelené tlačítko se znaménkem +mapu přiblížíte, kliknutím na zelené tlačítko se znaménkem – mapu oddálíte a kliknutím na zelené šipky přejdete na sousední mapy.


METAR-TAF: